KFLD/FLD METAR and TAF weather

Enter ICAO airport designator
Station Type Date Time Source
KFLD METAR 2021/03/08 11:53 UTC NOAA

KFLD 081153Z AUTO 21010KT 10SM CLR 06/01 A3014 RMK AO2 SLP214 T00610006 10083 20061 53006


Station Type Date Time Source
KFLD Decoded METAR 2021/03/08 11:53 UTC NOAA

FOND DU LAC COUNTY AIRPORT, WI, United States (KFLD) 43-46N 88-29W 240M
Mar 08, 2021 - 06:53 AM EST / 2021.03.08 1153 UTC
Wind: from the SSW (210 degrees) at 12 MPH (10 KT):0
Visibility: 10 mile(s):0
Sky conditions: clear
Temperature: 43.0 F (6.1 C)
Dew Point: 33.1 F (0.6 C)
Relative Humidity: 67%
Pressure (altimeter): 30.14 in. Hg (1020 hPa)
Pressure tendency: 0.02 inches (0.6 hPa) higher than three hours ago
ob: KFLD 081153Z AUTO 21010KT 10SM CLR 06/01 A3014 RMK AO2 SLP214 T00610006 10083 20061 53006
cycle: 12

Station Type Date Time Source
KFLD TAF UTC NOAA

Error!

Example: see airport list